createdAt,value
2023-05-25T00:02:11.619Z,12.82
2023-05-25T00:04:56.703Z,12.85
2023-05-25T00:07:41.711Z,12.87
2023-05-25T00:10:26.818Z,12.91
2023-05-25T00:13:11.984Z,12.97
2023-05-25T00:15:56.900Z,13.02
2023-05-25T00:18:42.008Z,13.00
2023-05-25T00:21:26.869Z,13.03
2023-05-25T00:24:11.794Z,13.07
2023-05-25T00:26:56.710Z,13.11
2023-05-25T00:29:41.835Z,13.09
2023-05-25T00:32:27.024Z,13.02
2023-05-25T00:35:11.998Z,12.91
2023-05-25T00:37:56.999Z,12.87
2023-05-25T00:40:41.961Z,12.81
2023-05-25T00:43:27.001Z,12.82
2023-05-25T00:46:11.837Z,12.61
2023-05-25T00:48:56.883Z,12.64
2023-05-25T00:51:41.902Z,12.47
2023-05-25T00:54:26.943Z,12.39
2023-05-25T00:57:12.020Z,12.39
2023-05-25T00:59:56.903Z,12.28
2023-05-25T01:02:42.204Z,12.20
2023-05-25T01:05:27.111Z,12.12
2023-05-25T01:08:12.296Z,12.05
2023-05-25T01:10:57.325Z,11.99
2023-05-25T01:13:42.483Z,11.96
2023-05-25T01:16:27.672Z,11.92
2023-05-25T01:19:12.552Z,12.01
2023-05-25T01:21:57.615Z,12.13
2023-05-25T01:24:42.470Z,12.24
2023-05-25T01:27:27.568Z,12.34
2023-05-25T01:30:12.669Z,12.38
2023-05-25T01:32:57.723Z,12.42
2023-05-25T01:35:42.639Z,12.48
2023-05-25T01:38:27.602Z,12.55
2023-05-25T01:41:12.605Z,12.55
2023-05-25T01:43:57.508Z,12.43
2023-05-25T01:46:42.675Z,12.29
2023-05-25T01:49:27.732Z,12.07
2023-05-25T01:52:12.770Z,12.07
2023-05-25T01:54:57.762Z,12.03
2023-05-25T01:57:42.904Z,11.97
2023-05-25T02:00:27.894Z,11.98
2023-05-25T02:03:12.886Z,11.93
2023-05-25T02:05:57.713Z,11.82
2023-05-25T02:08:42.672Z,11.74
2023-05-25T02:11:28.057Z,11.68
2023-05-25T02:14:13.065Z,11.75
2023-05-25T02:16:58.240Z,11.85
2023-05-25T02:19:43.140Z,11.89
2023-05-25T02:22:28.250Z,11.98
2023-05-25T02:25:13.210Z,11.99
2023-05-25T02:27:58.064Z,11.91
2023-05-25T02:30:43.195Z,11.77
2023-05-25T02:33:28.213Z,11.76
2023-05-25T02:36:13.131Z,11.80
2023-05-25T02:38:58.093Z,11.87
2023-05-25T02:41:43.184Z,11.91
2023-05-25T02:44:28.232Z,12.05
2023-05-25T02:47:13.155Z,12.11
2023-05-25T02:49:58.171Z,12.14
2023-05-25T02:52:43.164Z,11.99
2023-05-25T02:55:28.292Z,11.90
2023-05-25T02:58:13.185Z,11.90
2023-05-25T03:00:58.354Z,11.81
2023-05-25T03:03:43.344Z,11.69
2023-05-25T03:06:28.405Z,11.55
2023-05-25T03:09:13.344Z,11.43
2023-05-25T03:11:58.393Z,11.43
2023-05-25T03:14:43.345Z,11.45
2023-05-25T03:17:28.372Z,11.46
2023-05-25T03:20:13.468Z,11.44
2023-05-25T03:22:58.449Z,11.35
2023-05-25T03:25:43.733Z,11.28
2023-05-25T03:28:29.059Z,11.31
2023-05-25T03:31:14.038Z,11.39
2023-05-25T03:33:58.999Z,11.42
2023-05-25T03:36:44.088Z,11.48
2023-05-25T03:39:29.187Z,11.46
2023-05-25T03:42:14.028Z,11.49
2023-05-25T03:44:59.054Z,11.43
2023-05-25T03:47:44.127Z,11.50
2023-05-25T03:50:29.238Z,11.63
2023-05-25T03:53:14.273Z,11.67
2023-05-25T03:55:59.192Z,11.71
2023-05-25T03:58:44.295Z,11.78
2023-05-25T04:01:29.244Z,11.80
2023-05-25T04:04:14.508Z,11.91
2023-05-25T04:06:59.469Z,11.92
2023-05-25T04:09:44.539Z,11.96
2023-05-25T04:12:29.564Z,11.91
2023-05-25T04:15:14.618Z,11.88
2023-05-25T04:17:59.737Z,11.88
2023-05-25T04:20:44.631Z,11.85
2023-05-25T04:23:29.760Z,11.70
2023-05-25T04:26:14.839Z,11.63
2023-05-25T04:28:59.944Z,11.65
2023-05-25T04:31:44.940Z,11.69
2023-05-25T04:34:29.884Z,11.75
2023-05-25T04:37:14.831Z,11.87
2023-05-25T04:40:00.019Z,11.95
2023-05-25T04:42:44.924Z,12.00
2023-05-25T04:45:30.042Z,12.07
2023-05-25T04:48:15.019Z,12.14
2023-05-25T04:50:59.979Z,12.21
2023-05-25T04:53:45.024Z,12.29
2023-05-25T04:56:29.884Z,12.40
2023-05-25T04:59:14.873Z,12.47
2023-05-25T05:01:59.974Z,12.59
2023-05-25T05:04:44.924Z,12.69
2023-05-25T05:07:30.041Z,12.76
2023-05-25T05:10:15.041Z,12.82
2023-05-25T05:13:00.040Z,12.95
2023-05-25T05:15:45.162Z,13.10
2023-05-25T05:18:30.151Z,13.24
2023-05-25T05:21:15.086Z,13.49
2023-05-25T05:24:00.059Z,13.67
2023-05-25T05:26:57.439Z,13.80
2023-05-25T05:29:43.804Z,14.44
2023-05-25T05:32:29.020Z,15.96
2023-05-25T05:35:13.900Z,15.99
2023-05-25T05:37:58.977Z,15.67
2023-05-25T05:40:43.779Z,15.06
2023-05-25T05:43:28.847Z,14.87
2023-05-25T05:46:13.724Z,14.68
2023-05-25T05:48:58.851Z,14.55
2023-05-25T05:51:43.842Z,14.19
2023-05-25T05:54:28.805Z,14.35
2023-05-25T05:57:13.952Z,14.24
2023-05-25T05:59:58.958Z,14.16
2023-05-25T06:02:44.062Z,13.91
2023-05-25T06:05:28.986Z,13.81
2023-05-25T06:08:14.134Z,13.74
2023-05-25T06:10:59.128Z,13.60
2023-05-25T06:13:45.497Z,13.49
2023-05-25T06:16:31.769Z,13.18
2023-05-25T06:19:16.694Z,13.28
2023-05-25T06:22:01.530Z,13.33
2023-05-25T06:24:46.555Z,13.23
2023-05-25T06:27:31.508Z,13.17
2023-05-25T06:30:16.413Z,13.18
2023-05-25T06:33:01.402Z,13.04
2023-05-25T06:35:46.932Z,13.05
2023-05-25T06:38:32.377Z,13.16
2023-05-25T06:41:17.523Z,13.34
2023-05-25T06:44:02.548Z,13.58
2023-05-25T06:46:47.467Z,13.72
2023-05-25T06:49:32.468Z,13.86
2023-05-25T06:52:17.625Z,14.14
2023-05-25T06:55:02.480Z,14.50
2023-05-25T06:57:47.401Z,14.68
2023-05-25T07:00:32.530Z,15.38
2023-05-25T07:03:17.483Z,16.02
2023-05-25T07:06:02.455Z,15.67
2023-05-25T07:08:47.414Z,15.81
2023-05-25T07:11:32.490Z,15.54
2023-05-25T07:14:17.396Z,15.27
2023-05-25T07:17:02.410Z,15.49
2023-05-25T07:19:47.349Z,14.98
2023-05-25T07:22:32.290Z,14.51
2023-05-25T07:25:17.427Z,14.43
2023-05-25T07:28:02.429Z,14.93
2023-05-25T07:30:47.489Z,17.64
2023-05-25T07:33:32.441Z,16.51
2023-05-25T07:36:17.466Z,15.58
2023-05-25T07:39:02.492Z,15.04
2023-05-25T07:41:47.432Z,14.78
2023-05-25T07:44:32.616Z,14.91
2023-05-25T07:47:17.563Z,15.07
2023-05-25T07:50:02.589Z,15.06
2023-05-25T07:52:47.606Z,15.21
2023-05-25T07:55:32.601Z,15.27
2023-05-25T07:58:17.680Z,15.42
2023-05-25T08:01:02.696Z,16.09
2023-05-25T08:03:49.706Z,16.74
2023-05-25T08:06:35.420Z,16.11
2023-05-25T08:09:20.584Z,16.12
2023-05-25T08:12:27.155Z,17.03
2023-05-25T08:15:10.590Z,18.20
2023-05-25T08:17:55.667Z,17.87
2023-05-25T08:20:40.672Z,17.58
2023-05-25T08:23:25.483Z,17.64
2023-05-25T08:26:26.029Z,17.55
2023-05-25T08:29:15.522Z,17.72
2023-05-25T08:32:00.522Z,17.98
2023-05-25T08:34:45.631Z,18.02
2023-05-25T08:37:30.523Z,17.65
2023-05-25T08:40:15.580Z,18.08
2023-05-25T08:43:00.640Z,18.62
2023-05-25T08:45:47.320Z,18.76
2023-05-25T08:48:41.004Z,18.77
2023-05-25T08:51:27.641Z,18.28
2023-05-25T08:54:12.476Z,17.88
2023-05-25T08:56:57.509Z,18.07
2023-05-25T08:59:42.447Z,18.31
2023-05-25T09:02:27.564Z,18.90
2023-05-25T09:05:12.650Z,19.45
2023-05-25T09:07:57.562Z,19.86
2023-05-25T09:10:42.570Z,19.53
2023-05-25T09:13:27.370Z,19.26
2023-05-25T09:16:12.376Z,18.98
2023-05-25T09:18:57.146Z,18.97
2023-05-25T09:21:42.229Z,18.85
2023-05-25T09:24:27.209Z,18.63
2023-05-25T09:27:12.454Z,18.20
2023-05-25T09:29:57.261Z,18.06
2023-05-25T09:32:42.346Z,18.14
2023-05-25T09:35:27.315Z,18.46
2023-05-25T09:38:12.346Z,18.69
2023-05-25T09:40:57.298Z,19.07
2023-05-25T09:43:49.000Z,19.33
2023-05-25T09:46:42.926Z,19.41
2023-05-25T09:49:27.723Z,19.11
2023-05-25T09:52:12.883Z,18.88
2023-05-25T09:54:57.863Z,18.84
2023-05-25T09:57:42.727Z,18.72
2023-05-25T10:00:27.715Z,18.64
2023-05-25T10:03:12.659Z,18.75
2023-05-25T10:05:57.690Z,18.76
2023-05-25T10:08:42.519Z,19.05
2023-05-25T10:11:27.418Z,19.49
2023-05-25T10:14:12.285Z,19.23
2023-05-25T10:16:57.438Z,18.84
2023-05-25T10:19:43.113Z,18.93
2023-05-25T10:22:28.052Z,18.50
2023-05-25T10:25:13.038Z,18.68
2023-05-25T10:27:59.571Z,18.90
2023-05-25T10:30:45.120Z,19.24
2023-05-25T10:36:16.182Z,19.24
2023-05-25T10:39:02.021Z,19.16
2023-05-25T10:41:47.176Z,19.37
2023-05-25T10:44:32.216Z,19.62
2023-05-25T10:47:17.396Z,19.95
2023-05-25T10:50:02.165Z,20.10
2023-05-25T10:52:47.242Z,20.55
2023-05-25T10:55:32.272Z,21.26
2023-05-25T10:58:17.498Z,21.62
2023-05-25T11:01:02.615Z,21.97
2023-05-25T11:03:47.659Z,21.53
2023-05-25T11:06:32.711Z,20.93
2023-05-25T11:09:17.811Z,20.91
2023-05-25T11:12:03.015Z,21.08
2023-05-25T11:14:47.910Z,21.28
2023-05-25T11:17:33.103Z,21.53
2023-05-25T11:20:18.089Z,21.30
2023-05-25T11:23:03.271Z,21.18
2023-05-25T11:25:48.096Z,20.96
2023-05-25T11:28:33.222Z,21.21
2023-05-25T11:31:18.237Z,20.87
2023-05-25T11:34:03.162Z,20.81
2023-05-25T11:36:48.178Z,20.70
2023-05-25T11:39:32.979Z,20.80
2023-05-25T11:42:18.154Z,20.44
2023-05-25T11:45:03.511Z,20.42
2023-05-25T11:47:48.742Z,20.74
2023-05-25T11:50:33.753Z,20.59
2023-05-25T11:53:18.842Z,20.13
2023-05-25T11:56:08.128Z,20.44
2023-05-25T11:58:53.123Z,20.67
2023-05-25T12:01:38.226Z,20.28
2023-05-25T12:04:24.367Z,20.18
2023-05-25T12:07:09.224Z,20.30
2023-05-25T12:09:54.317Z,20.60
2023-05-25T12:12:39.225Z,20.53
2023-05-25T12:15:24.361Z,20.59
2023-05-25T12:18:09.374Z,20.71
2023-05-25T12:20:54.628Z,20.79
2023-05-25T12:23:39.427Z,20.61
2023-05-25T12:26:24.453Z,20.73
2023-05-25T12:29:09.553Z,20.85
2023-05-25T12:31:54.507Z,20.80
2023-05-25T12:34:39.508Z,20.53
2023-05-25T12:37:24.382Z,20.29
2023-05-25T12:40:09.538Z,20.41
2023-05-25T12:42:54.475Z,20.72
2023-05-25T12:45:39.510Z,20.69
2023-05-25T12:48:24.588Z,20.79
2023-05-25T12:51:09.408Z,21.06
2023-05-25T12:53:54.522Z,20.97
2023-05-25T12:56:39.382Z,21.23
2023-05-25T12:59:24.308Z,21.25
2023-05-25T13:02:09.376Z,20.90
2023-05-25T13:04:54.285Z,20.69
2023-05-25T13:07:39.304Z,20.63
2023-05-25T13:10:24.347Z,20.56
2023-05-25T13:13:09.380Z,20.67
2023-05-25T13:15:54.512Z,20.58
2023-05-25T13:18:39.600Z,20.64
2023-05-25T13:21:24.607Z,20.78
2023-05-25T13:24:09.739Z,21.06
2023-05-25T13:26:54.728Z,21.17
2023-05-25T13:29:39.650Z,21.30
2023-05-25T13:32:24.647Z,20.99
2023-05-25T13:35:09.575Z,21.23
2023-05-25T13:37:55.678Z,21.01
2023-05-25T13:40:40.687Z,21.04
2023-05-25T13:43:25.836Z,21.21
2023-05-25T13:46:21.844Z,21.18
2023-05-25T13:49:10.965Z,21.01
2023-05-25T13:51:55.879Z,21.15
2023-05-25T13:54:40.957Z,21.42
2023-05-25T13:57:26.085Z,21.52
2023-05-25T14:00:11.049Z,21.74
2023-05-25T14:02:56.283Z,21.58
2023-05-25T14:05:41.163Z,21.64
2023-05-25T14:08:26.054Z,21.76
2023-05-25T14:11:10.903Z,21.88
2023-05-25T14:13:56.114Z,21.92
2023-05-25T14:16:41.227Z,21.98
2023-05-25T14:19:26.092Z,22.04
2023-05-25T14:22:13.331Z,22.14
2023-05-25T14:24:59.424Z,22.14
2023-05-25T14:27:44.478Z,22.23
2023-05-25T14:30:29.437Z,22.27
2023-05-25T14:33:14.399Z,22.18
2023-05-25T14:35:59.268Z,22.22
2023-05-25T14:38:44.227Z,22.08
2023-05-25T14:41:29.596Z,22.09
2023-05-25T14:44:14.238Z,22.11
2023-05-25T14:46:59.318Z,22.41
2023-05-25T14:49:44.217Z,22.29
2023-05-25T14:52:29.348Z,22.31
2023-05-25T14:55:14.198Z,22.05
2023-05-25T14:57:59.185Z,21.75
2023-05-25T15:00:44.167Z,21.72
2023-05-25T15:03:29.195Z,21.59
2023-05-25T15:06:14.215Z,21.72
2023-05-25T15:08:59.281Z,21.60
2023-05-25T15:11:44.410Z,21.72
2023-05-25T15:14:29.317Z,21.77
2023-05-25T15:17:14.348Z,21.86
2023-05-25T15:19:59.385Z,21.78
2023-05-25T15:22:44.081Z,21.98
2023-05-25T15:25:34.963Z,22.19
2023-05-25T15:28:32.191Z,22.17
2023-05-25T15:31:17.289Z,21.93
2023-05-25T15:34:02.265Z,21.74
2023-05-25T15:36:47.216Z,21.71
2023-05-25T15:39:32.393Z,21.72
2023-05-25T15:42:17.195Z,21.74
2023-05-25T15:45:02.294Z,21.75
2023-05-25T15:47:47.316Z,21.58
2023-05-25T15:50:32.219Z,21.51
2023-05-25T15:53:17.142Z,21.32
2023-05-25T15:56:02.158Z,21.30
2023-05-25T15:58:47.103Z,21.26
2023-05-25T16:01:31.823Z,21.22
2023-05-25T16:04:16.835Z,21.20
2023-05-25T16:07:01.700Z,20.96
2023-05-25T16:09:46.705Z,20.96
2023-05-25T16:12:31.640Z,20.86
2023-05-25T16:15:16.820Z,20.91
2023-05-25T16:18:01.802Z,20.98
2023-05-25T16:20:46.750Z,21.06
2023-05-25T16:23:31.709Z,21.15
2023-05-25T16:26:16.668Z,21.14
2023-05-25T16:29:01.704Z,21.19
2023-05-25T16:31:46.655Z,21.26
2023-05-25T16:34:31.745Z,21.35
2023-05-25T16:37:16.642Z,21.46
2023-05-25T16:40:01.715Z,21.59
2023-05-25T16:42:46.715Z,21.58
2023-05-25T16:45:31.729Z,21.57
2023-05-25T16:48:16.918Z,21.41
2023-05-25T16:51:01.685Z,21.27
2023-05-25T16:53:46.893Z,21.09
2023-05-25T16:56:31.826Z,20.92
2023-05-25T16:59:16.866Z,20.92
2023-05-25T17:02:01.997Z,21.04
2023-05-25T17:04:46.937Z,21.10
2023-05-25T17:07:31.896Z,21.26
2023-05-25T17:10:16.869Z,21.40
2023-05-25T17:13:01.966Z,21.52
2023-05-25T17:15:47.079Z,21.54
2023-05-25T17:18:32.556Z,21.44
2023-05-25T17:21:17.477Z,21.18
2023-05-25T17:24:02.628Z,20.92
2023-05-25T17:26:47.622Z,20.93
2023-05-25T17:29:32.626Z,20.95
2023-05-25T17:32:17.897Z,20.97
2023-05-25T17:35:02.824Z,20.98
2023-05-25T17:37:47.898Z,20.97
2023-05-25T17:40:32.864Z,20.83
2023-05-25T17:43:17.895Z,20.52
2023-05-25T17:46:02.856Z,20.28
2023-05-25T17:48:47.766Z,20.17
2023-05-25T17:51:32.930Z,20.15
2023-05-25T17:54:17.952Z,20.15
2023-05-25T17:57:03.063Z,20.16
2023-05-25T17:59:47.984Z,20.13
2023-05-25T18:02:33.388Z,19.96
2023-05-25T18:05:18.525Z,19.78
2023-05-25T18:08:03.486Z,19.74
2023-05-25T18:10:48.562Z,19.61
2023-05-25T18:13:33.600Z,19.53
2023-05-25T18:16:18.694Z,19.42
2023-05-25T18:19:03.603Z,19.38
2023-05-25T18:21:48.686Z,19.35
2023-05-25T18:24:33.563Z,19.35
2023-05-25T18:27:18.702Z,19.28
2023-05-25T18:30:03.619Z,19.12
2023-05-25T18:32:48.564Z,19.09
2023-05-25T18:35:33.640Z,19.01
2023-05-25T18:38:18.501Z,18.94
2023-05-25T18:41:03.540Z,18.91
2023-05-25T18:43:48.506Z,18.83
2023-05-25T18:46:33.861Z,18.69
2023-05-25T18:49:19.064Z,18.64
2023-05-25T18:52:04.154Z,18.57
2023-05-25T18:54:49.166Z,18.46
2023-05-25T18:57:34.115Z,18.35
2023-05-25T19:00:19.222Z,18.28
2023-05-25T19:03:04.226Z,18.21
2023-05-25T19:05:49.014Z,18.05
2023-05-25T19:08:34.013Z,17.90
2023-05-25T19:11:19.450Z,17.80
2023-05-25T19:14:04.428Z,17.83
2023-05-25T19:16:49.440Z,17.90
2023-05-25T19:19:34.244Z,17.85
2023-05-25T19:22:19.250Z,17.85
2023-05-25T19:25:04.347Z,17.80
2023-05-25T19:27:49.297Z,17.85
2023-05-25T19:30:34.394Z,17.80
2023-05-25T19:33:19.260Z,17.79
2023-05-25T19:36:04.379Z,17.75
2023-05-25T19:38:49.349Z,17.60
2023-05-25T19:41:34.313Z,17.54
2023-05-25T19:44:19.330Z,17.45
2023-05-25T19:47:04.288Z,17.39
2023-05-25T19:49:49.267Z,17.38
2023-05-25T19:52:34.154Z,17.46
2023-05-25T19:55:19.305Z,17.44
2023-05-25T19:58:04.176Z,17.42
2023-05-25T20:00:49.324Z,17.36
2023-05-25T20:03:35.036Z,17.22
2023-05-25T20:06:19.779Z,17.09
2023-05-25T20:09:04.912Z,16.99
2023-05-25T20:11:49.752Z,16.96
2023-05-25T20:14:34.894Z,16.75
2023-05-25T20:17:19.870Z,16.56
2023-05-25T20:20:04.884Z,16.43
2023-05-25T20:22:49.717Z,16.35
2023-05-25T20:25:34.694Z,16.36
2023-05-25T20:28:19.766Z,16.34
2023-05-25T20:31:04.627Z,16.46
2023-05-25T20:33:49.616Z,16.42
2023-05-25T20:36:34.455Z,16.28
2023-05-25T20:39:19.555Z,16.25
2023-05-25T20:42:04.382Z,16.16
2023-05-25T20:44:49.437Z,16.11
2023-05-25T20:47:34.528Z,16.17
2023-05-25T20:50:19.533Z,16.15
2023-05-25T20:53:04.580Z,16.08
2023-05-25T20:55:49.538Z,16.10
2023-05-25T20:58:34.697Z,15.96
2023-05-25T21:01:19.671Z,15.99
2023-05-25T21:04:04.688Z,16.17
2023-05-25T21:06:49.553Z,16.19
2023-05-25T21:09:34.655Z,16.07
2023-05-25T21:12:19.645Z,15.96
2023-05-25T21:15:04.521Z,15.83
2023-05-25T21:17:49.637Z,15.68
2023-05-25T21:20:34.575Z,15.61
2023-05-25T21:23:19.549Z,15.66
2023-05-25T21:26:04.545Z,15.62
2023-05-25T21:28:49.531Z,15.54
2023-05-25T21:31:34.617Z,15.51
2023-05-25T21:34:19.659Z,15.44
2023-05-25T21:37:04.733Z,15.37
2023-05-25T21:39:49.644Z,15.28
2023-05-25T21:42:34.773Z,15.22
2023-05-25T21:45:19.857Z,15.14
2023-05-25T21:48:05.036Z,14.99
2023-05-25T21:50:49.841Z,14.94
2023-05-25T21:53:34.859Z,14.84
2023-05-25T21:56:19.906Z,14.78
2023-05-25T21:59:04.815Z,14.72
2023-05-25T22:01:49.977Z,14.66
2023-05-25T22:04:34.838Z,14.63
2023-05-25T22:07:20.076Z,14.67
2023-05-25T22:10:05.038Z,14.72
2023-05-25T22:12:50.208Z,14.71
2023-05-25T22:15:35.287Z,14.75
2023-05-25T22:18:20.319Z,14.67
2023-05-25T22:21:05.364Z,14.58
2023-05-25T22:23:50.265Z,14.62
2023-05-25T22:26:35.244Z,14.66
2023-05-25T22:29:20.236Z,14.54
2023-05-25T22:32:05.335Z,14.46
2023-05-25T22:34:50.156Z,14.40
2023-05-25T22:37:35.203Z,14.34
2023-05-25T22:40:20.259Z,14.37
2023-05-25T22:43:05.238Z,14.35
2023-05-25T22:45:50.296Z,14.34
2023-05-25T22:48:35.331Z,14.37
2023-05-25T22:51:20.492Z,14.35
2023-05-25T22:54:05.353Z,14.28
2023-05-25T22:56:50.483Z,14.26
2023-05-25T22:59:35.445Z,14.24
2023-05-25T23:02:20.415Z,14.27
2023-05-25T23:05:05.535Z,14.28
2023-05-25T23:07:50.521Z,14.26
2023-05-25T23:10:35.487Z,14.31
2023-05-25T23:13:20.545Z,14.28
2023-05-25T23:16:05.772Z,14.22
2023-05-25T23:18:50.532Z,14.24
2023-05-25T23:21:35.552Z,14.25
2023-05-25T23:24:20.420Z,14.26
2023-05-25T23:27:05.441Z,14.18
2023-05-25T23:29:50.457Z,14.17
2023-05-25T23:32:35.394Z,14.12
2023-05-25T23:35:20.467Z,14.06
2023-05-25T23:38:05.375Z,14.13
2023-05-25T23:40:50.495Z,14.10
2023-05-25T23:43:35.522Z,14.16
2023-05-25T23:46:20.611Z,14.09
2023-05-25T23:49:05.619Z,14.04
2023-05-25T23:51:50.554Z,14.06
2023-05-25T23:54:35.617Z,14.06
2023-05-25T23:57:20.561Z,14.05
